Time,TemperatureF,DewpointF,PressureIn,WindDirection,WindDirectionDegrees,WindSpeedMPH,WindSpeedGustMPH,Humidity,HourlyPrecipIn,Conditions,Clouds,dailyrainin,SoftwareType,DateUTC
2013-05-12 00:02:00,56.0,40.0,30.05,North,2,0.0,6.0,54,0.00,,,0.01,,2013-05-12 05:02:00,
2013-05-12 00:11:00,56.0,40.0,30.05,North,2,0.0,6.0,54,0.00,,,0.01,,2013-05-12 05:11:00,
2013-05-12 00:22:00,56.0,39.0,30.06,North,357,0.0,8.0,53,0.00,,,0.01,,2013-05-12 05:22:00,
2013-05-12 00:32:00,55.0,39.0,30.06,NNW,348,0.0,8.0,54,0.00,,,0.01,,2013-05-12 05:32:00,
2013-05-12 00:42:00,55.0,39.0,30.06,NNW,348,0.0,8.0,54,0.00,,,0.01,,2013-05-12 05:42:00,
2013-05-12 00:51:00,55.0,39.0,30.06,North,352,0.0,7.0,55,0.00,,,0.01,,2013-05-12 05:51:00,
2013-05-12 01:01:00,54.0,39.0,30.06,North,353,0.0,5.0,57,0.00,,,0.01,,2013-05-12 06:01:00,
2013-05-12 01:11:00,53.0,39.0,30.07,NNE,27,0.0,3.0,58,0.00,,,0.01,,2013-05-12 06:11:00,
2013-05-12 01:21:00,53.0,39.0,30.07,NNE,27,0.0,3.0,58,0.00,,,0.01,,2013-05-12 06:21:00,
2013-05-12 01:32:00,53.0,39.0,30.07,North,352,0.0,1.0,59,0.00,,,0.01,,2013-05-12 06:32:00,
2013-05-12 01:42:00,53.0,39.0,30.07,NNE,30,0.0,6.0,59,0.00,,,0.01,,2013-05-12 06:42:00,
2013-05-12 01:52:00,53.0,39.0,30.07,NNE,30,0.0,6.0,59,0.00,,,0.01,,2013-05-12 06:52:00,
2013-05-12 02:01:00,52.0,38.0,30.07,NNW,348,0.0,7.0,58,0.00,,,0.01,,2013-05-12 07:01:00,
2013-05-12 02:11:00,52.0,38.0,30.07,NNW,348,0.0,7.0,58,0.00,,,0.01,,2013-05-12 07:11:00,
2013-05-12 02:21:00,52.0,38.0,30.07,NNW,345,0.0,7.0,58,0.00,,,0.01,,2013-05-12 07:21:00,
2013-05-12 02:32:00,52.0,38.0,30.06,NNE,33,0.0,1.0,58,0.00,,,0.01,,2013-05-12 07:32:00,
2013-05-12 02:42:00,52.0,38.0,30.06,NNE,33,0.0,1.0,58,0.00,,,0.01,,2013-05-12 07:42:00,
2013-05-12 02:52:00,51.0,37.0,30.06,NW,319,0.0,2.0,58,0.00,,,0.01,,2013-05-12 07:52:00,
2013-05-12 03:02:00,51.0,36.0,30.06,North,357,0.0,7.0,57,0.00,,,0.01,,2013-05-12 08:02:00,
2013-05-12 03:11:00,51.0,36.0,30.06,North,357,0.0,7.0,57,0.00,,,0.01,,2013-05-12 08:11:00,
2013-05-12 03:21:00,51.0,36.0,30.06,NNW,346,0.0,6.0,57,0.00,,,0.01,,2013-05-12 08:21:00,
2013-05-12 03:32:00,51.0,37.0,30.06,NNW,339,0.0,3.0,59,0.00,,,0.01,,2013-05-12 08:32:00,
2013-05-12 03:41:00,51.0,37.0,30.06,NNW,339,0.0,3.0,59,0.00,,,0.01,,2013-05-12 08:41:00,
2013-05-12 03:52:00,50.0,37.0,30.07,North,0,0.0,0.0,61,0.00,,,0.01,,2013-05-12 08:52:00,
2013-05-12 04:01:00,50.0,37.0,30.07,NNW,332,0.0,1.0,60,0.00,,,0.01,,2013-05-12 09:01:00,
2013-05-12 04:11:00,50.0,37.0,30.07,North,0,0.0,0.0,60,0.00,,,0.01,,2013-05-12 09:11:00,
2013-05-12 04:21:00,50.0,37.0,30.07,North,0,0.0,0.0,60,0.00,,,0.01,,2013-05-12 09:21:00,
2013-05-12 04:33:00,49.0,38.0,30.07,North,0,0.0,0.0,65,0.00,,,0.01,,2013-05-12 09:33:00,
2013-05-12 04:42:00,49.0,38.0,30.07,North,0,0.0,0.0,65,0.00,,,0.01,,2013-05-12 09:42:00,
2013-05-12 04:53:00,47.0,39.0,30.08,North,0,0.0,0.0,73,0.00,,,0.01,,2013-05-12 09:53:00,
2013-05-12 05:03:00,46.0,38.0,30.08,North,0,0.0,0.0,73,0.00,,,0.01,,2013-05-12 10:03:00,
2013-05-12 05:12:00,46.0,38.0,30.08,North,0,0.0,0.0,73,0.00,,,0.01,,2013-05-12 10:12:00,
2013-05-12 05:22:00,45.0,39.0,30.09,North,0,0.0,0.0,78,0.00,,,0.01,,2013-05-12 10:22:00,
2013-05-12 05:33:00,44.0,38.0,30.09,North,0,0.0,0.0,80,0.00,,,0.01,,2013-05-12 10:33:00,
2013-05-12 05:42:00,44.0,38.0,30.09,North,0,0.0,0.0,80,0.00,,,0.01,,2013-05-12 10:42:00,
2013-05-12 05:52:00,43.0,38.0,30.09,North,0,0.0,0.0,83,0.00,,,0.01,,2013-05-12 10:52:00,
2013-05-12 06:02:00,43.0,38.0,30.09,North,0,0.0,0.0,84,0.00,,,0.01,,2013-05-12 11:02:00,
2013-05-12 06:12:00,43.0,38.0,30.09,North,0,0.0,0.0,84,0.00,,,0.01,,2013-05-12 11:12:00,
2013-05-12 06:21:00,43.0,38.0,30.09,North,0,0.0,0.0,83,0.00,,,0.01,,2013-05-12 11:21:00,
2013-05-12 06:32:00,43.0,38.0,30.11,North,0,0.0,0.0,82,0.00,,,0.01,,2013-05-12 11:32:00,
2013-05-12 06:42:00,43.0,38.0,30.11,North,0,0.0,0.0,83,0.00,,,0.01,,2013-05-12 11:42:00,
2013-05-12 06:52:00,43.0,38.0,30.11,North,0,0.0,0.0,83,0.00,,,0.01,,2013-05-12 11:52:00,
2013-05-12 07:01:00,44.0,39.0,30.11,North,0,0.0,0.0,83,0.00,,,0.01,,2013-05-12 12:01:00,
2013-05-12 07:11:00,45.0,39.0,30.11,North,0,0.0,0.0,79,0.00,,,0.01,,2013-05-12 12:11:00,
2013-05-12 07:21:00,45.0,39.0,30.11,North,0,0.0,0.0,79,0.00,,,0.01,,2013-05-12 12:21:00,
2013-05-12 07:32:00,47.0,39.0,30.12,North,0,0.0,0.0,73,0.00,,,0.01,,2013-05-12 12:32:00,
2013-05-12 07:41:00,47.0,39.0,30.12,North,0,0.0,0.0,73,0.00,,,0.01,,2013-05-12 12:41:00,
2013-05-12 07:51:00,48.0,39.0,30.12,North,0,0.0,0.0,72,0.00,,,0.01,,2013-05-12 12:51:00,
2013-05-12 08:01:00,49.0,40.0,30.12,NNW,329,0.0,3.0,70,0.00,,,0.01,,2013-05-12 13:01:00,
2013-05-12 08:11:00,49.0,40.0,30.12,NNW,329,0.0,3.0,70,0.00,,,0.01,,2013-05-12 13:11:00,
2013-05-12 08:21:00,50.0,39.0,30.12,NW,307,0.0,3.0,65,0.00,,,0.01,,2013-05-12 13:21:00,
2013-05-12 08:32:00,51.0,38.0,30.12,NNW,335,1.0,6.0,62,0.00,,,0.01,,2013-05-12 13:32:00,
2013-05-12 08:41:00,51.0,38.0,30.12,NNW,335,1.0,6.0,62,0.00,,,0.01,,2013-05-12 13:41:00,
2013-05-12 08:52:00,52.0,37.0,30.14,NNW,348,2.0,8.0,57,0.00,,,0.01,,2013-05-12 13:52:00,
2013-05-12 09:01:00,52.0,38.0,30.14,NNW,330,2.0,12.0,58,0.00,,,0.01,,2013-05-12 14:01:00,
2013-05-12 09:11:00,52.0,38.0,30.14,NNW,330,2.0,12.0,58,0.00,,,0.01,,2013-05-12 14:11:00,
2013-05-12 09:21:00,53.0,36.0,30.14,NNW,348,3.0,11.0,52,0.00,,,0.01,,2013-05-12 14:21:00,
2013-05-12 09:31:00,54.0,36.0,30.14,North,353,1.0,9.0,51,0.00,,,0.01,,2013-05-12 14:31:00,
2013-05-12 09:42:00,56.0,33.0,30.14,NNE,12,2.0,11.0,42,0.00,,,0.01,,2013-05-12 14:42:00,
2013-05-12 09:52:00,56.0,33.0,30.14,NNE,12,2.0,11.0,42,0.00,,,0.01,,2013-05-12 14:52:00,
2013-05-12 10:01:00,55.0,33.0,30.14,North,352,2.0,11.0,43,0.00,,,0.01,,2013-05-12 15:01:00,
2013-05-12 10:11:00,55.0,33.0,30.14,North,352,2.0,11.0,43,0.00,,,0.01,,2013-05-12 15:11:00,
2013-05-12 10:21:00,55.0,28.0,30.14,North,359,3.0,11.0,35,0.00,,,0.01,,2013-05-12 15:21:00,
2013-05-12 10:34:00,57.0,26.0,30.14,NNE,23,1.0,12.0,30,0.00,,,0.01,,2013-05-12 15:34:00,
2013-05-12 10:42:00,57.0,26.0,30.14,NNE,23,1.0,12.0,30,0.00,,,0.01,,2013-05-12 15:42:00,
2013-05-12 10:52:00,56.0,23.0,30.14,North,2,3.0,17.0,28,0.00,,,0.01,,2013-05-12 15:52:00,
2013-05-12 11:02:00,56.0,25.0,30.15,NNW,348,3.0,13.0,30,0.00,,,0.01,,2013-05-12 16:02:00,
2013-05-12 11:12:00,56.0,25.0,30.15,NNW,348,3.0,13.0,30,0.00,,,0.01,,2013-05-12 16:12:00,
2013-05-12 11:23:00,57.0,27.0,30.15,NNE,26,2.0,9.0,32,0.00,,,0.01,,2013-05-12 16:23:00,
2013-05-12 11:33:00,57.0,28.0,30.14,NNE,20,2.0,13.0,33,0.00,,,0.01,,2013-05-12 16:33:00,
2013-05-12 11:42:00,57.0,28.0,30.14,NNE,20,2.0,13.0,33,0.00,,,0.01,,2013-05-12 16:42:00,
2013-05-12 11:52:00,58.0,29.0,30.14,North,9,1.0,10.0,33,0.00,,,0.01,,2013-05-12 16:52:00,
2013-05-12 12:02:00,58.0,31.0,30.14,NNE,14,2.0,11.0,35,0.00,,,0.01,,2013-05-12 17:02:00,
2013-05-12 12:12:00,58.0,31.0,30.14,North,355,1.0,10.0,35,0.00,,,0.01,,2013-05-12 17:12:00,
2013-05-12 12:22:00,58.0,31.0,30.14,North,355,1.0,10.0,35,0.00,,,0.01,,2013-05-12 17:22:00,
2013-05-12 12:32:00,58.0,25.0,30.14,North,353,4.0,13.0,28,0.00,,,0.01,,2013-05-12 17:32:00,
2013-05-12 12:42:00,58.0,28.0,30.13,NNW,330,3.0,12.0,31,0.00,,,0.01,,2013-05-12 17:42:00,
2013-05-12 12:52:00,58.0,28.0,30.13,NNW,330,3.0,12.0,31,0.00,,,0.01,,2013-05-12 17:52:00,
2013-05-12 13:01:00,60.0,29.0,30.13,North,2,0.0,12.0,31,0.00,,,0.01,,2013-05-12 18:01:00,
2013-05-12 13:12:00,60.0,29.0,30.13,North,2,0.0,12.0,31,0.00,,,0.01,,2013-05-12 18:12:00,
2013-05-12 13:22:00,59.0,28.0,30.13,NE,40,1.0,12.0,31,0.00,,,0.01,,2013-05-12 18:22:00,
2013-05-12 13:32:00,60.0,32.0,30.13,North,1,1.0,10.0,35,0.00,,,0.01,,2013-05-12 18:32:00,
2013-05-12 13:42:00,60.0,32.0,30.13,North,1,1.0,10.0,35,0.00,,,0.01,,2013-05-12 18:42:00,
2013-05-12 13:52:00,59.0,30.0,30.13,NNW,338,2.0,11.0,33,0.00,,,0.01,,2013-05-12 18:52:00,
2013-05-12 14:01:00,60.0,33.0,30.12,NNW,338,1.0,9.0,36,0.00,,,0.01,,2013-05-12 19:01:00,
2013-05-12 14:11:00,60.0,33.0,30.12,NNW,338,1.0,9.0,36,0.00,,,0.01,,2013-05-12 19:11:00,
2013-05-12 14:21:00,60.0,32.0,30.12,NW,317,1.0,10.0,34,0.00,,,0.01,,2013-05-12 19:21:00,
2013-05-12 14:32:00,60.0,33.0,30.12,NNE,19,1.0,10.0,36,0.00,,,0.01,,2013-05-12 19:32:00,
2013-05-12 14:42:00,61.0,32.0,30.12,North,358,0.0,9.0,34,0.00,,,0.01,,2013-05-12 19:42:00,
2013-05-12 14:52:00,61.0,32.0,30.12,North,358,0.0,9.0,34,0.00,,,0.01,,2013-05-12 19:52:00,
2013-05-12 15:02:00,61.0,33.0,30.11,NNE,18,1.0,7.0,35,0.00,,,0.01,,2013-05-12 20:02:00,
2013-05-12 15:11:00,61.0,32.0,30.11,NW,315,1.0,11.0,33,0.00,,,0.01,,2013-05-12 20:11:00,
2013-05-12 15:21:00,61.0,32.0,30.11,NW,315,1.0,11.0,33,0.00,,,0.01,,2013-05-12 20:21:00,
2013-05-12 15:32:00,62.0,29.0,30.10,NNW,338,1.0,10.0,29,0.00,,,0.01,,2013-05-12 20:32:00,
2013-05-12 15:42:00,62.0,29.0,30.10,NNW,338,1.0,10.0,29,0.00,,,0.01,,2013-05-12 20:42:00,
2013-05-12 15:51:00,62.0,31.0,30.10,NNW,334,1.0,13.0,31,0.00,,,0.01,,2013-05-12 20:51:00,
2013-05-12 16:01:00,61.0,29.0,30.10,NW,326,3.0,13.0,30,0.00,,,0.01,,2013-05-12 21:01:00,
2013-05-12 16:11:00,62.0,29.0,30.09,North,352,2.0,12.0,28,0.00,,,0.01,,2013-05-12 21:11:00,
2013-05-12 16:21:00,62.0,29.0,30.09,North,352,2.0,12.0,28,0.00,,,0.01,,2013-05-12 21:21:00,
2013-05-12 16:33:00,62.0,29.0,30.09,NNW,341,1.0,8.0,29,0.00,,,0.01,,2013-05-12 21:33:00,
2013-05-12 16:42:00,62.0,29.0,30.09,NNW,341,1.0,8.0,29,0.00,,,0.01,,2013-05-12 21:42:00,
2013-05-12 16:53:00,62.0,32.0,30.10,NNW,331,2.0,13.0,32,0.00,,,0.01,,2013-05-12 21:53:00,
2013-05-12 17:02:00,62.0,32.0,30.10,NW,307,3.0,11.0,32,0.00,,,0.01,,2013-05-12 22:02:00,
2013-05-12 17:12:00,62.0,28.0,30.10,North,350,1.0,8.0,27,0.00,,,0.01,,2013-05-12 22:12:00,
2013-05-12 17:23:00,62.0,28.0,30.10,North,350,1.0,8.0,27,0.00,,,0.01,,2013-05-12 22:23:00,
2013-05-12 17:32:00,62.0,28.0,30.10,WNW,301,1.0,6.0,27,0.00,,,0.01,,2013-05-12 22:32:00,
2013-05-12 17:42:00,62.0,28.0,30.10,WNW,301,1.0,6.0,27,0.00,,,0.01,,2013-05-12 22:42:00,
2013-05-12 17:52:00,62.0,32.0,30.10,WNW,293,0.0,2.0,32,0.00,,,0.01,,2013-05-12 22:52:00,
2013-05-12 18:02:00,62.0,29.0,30.10,NW,323,1.0,8.0,29,0.00,,,0.01,,2013-05-12 23:02:00,
2013-05-12 18:12:00,62.0,30.0,30.10,WNW,299,0.0,3.0,30,0.00,,,0.01,,2013-05-12 23:12:00,
2013-05-12 18:22:00,62.0,30.0,30.10,WNW,299,0.0,3.0,30,0.00,,,0.01,,2013-05-12 23:22:00,
2013-05-12 18:32:00,62.0,30.0,30.10,NW,320,0.0,2.0,30,0.00,,,0.01,,2013-05-12 23:32:00,
2013-05-12 18:42:00,62.0,30.0,30.10,NW,320,0.0,2.0,30,0.00,,,0.01,,2013-05-12 23:42:00,
2013-05-12 18:52:00,62.0,31.0,30.10,North,351,0.0,7.0,31,0.00,,,0.01,,2013-05-12 23:52:00,
2013-05-12 19:01:00,61.0,31.0,30.09,North,352,0.0,1.0,32,0.00,,,0.01,,2013-05-13 00:01:00,
2013-05-12 19:11:00,61.0,31.0,30.09,North,352,0.0,1.0,32,0.00,,,0.01,,2013-05-13 00:11:00,
2013-05-12 19:21:00,60.0,32.0,30.09,North,352,0.0,1.0,34,0.00,,,0.01,,2013-05-13 00:21:00,
2013-05-12 19:32:00,60.0,32.0,30.09,North,352,0.0,1.0,35,0.00,,,0.01,,2013-05-13 00:32:00,
2013-05-12 19:42:00,58.0,39.0,30.09,North,0,0.0,0.0,49,0.00,,,0.00,,2013-05-13 00:42:00,
2013-05-12 19:51:00,58.0,39.0,30.09,North,0,0.0,0.0,49,0.00,,,0.00,,2013-05-13 00:51:00,
2013-05-12 20:01:00,57.0,42.0,30.09,North,0,0.0,0.0,58,0.00,,,0.00,,2013-05-13 01:01:00,
2013-05-12 20:11:00,57.0,42.0,30.09,North,0,0.0,0.0,58,0.00,,,0.00,,2013-05-13 01:11:00,
2013-05-12 20:22:00,54.0,43.0,30.09,North,0,0.0,0.0,65,0.00,,,0.00,,2013-05-13 01:22:00,
2013-05-12 20:31:00,53.0,43.0,30.09,North,0,0.0,0.0,68,0.00,,,0.00,,2013-05-13 01:31:00,
2013-05-12 20:41:00,53.0,43.0,30.09,North,0,0.0,0.0,68,0.00,,,0.00,,2013-05-13 01:41:00,
2013-05-12 20:52:00,51.0,42.0,30.10,North,0,0.0,0.0,72,0.00,,,0.00,,2013-05-13 01:52:00,
2013-05-12 21:01:00,50.0,41.0,30.10,North,0,0.0,0.0,72,0.00,,,0.00,,2013-05-13 02:01:00,
2013-05-12 21:11:00,50.0,41.0,30.10,North,0,0.0,0.0,72,0.00,,,0.00,,2013-05-13 02:11:00,
2013-05-12 21:21:00,49.0,39.0,30.11,North,0,0.0,0.0,68,0.00,,,0.00,,2013-05-13 02:21:00,
2013-05-12 21:31:00,48.0,39.0,30.11,North,0,0.0,0.0,71,0.00,,,0.00,,2013-05-13 02:31:00,
2013-05-12 21:41:00,48.0,39.0,30.11,North,0,0.0,0.0,71,0.00,,,0.00,,2013-05-13 02:41:00,
2013-05-12 21:52:00,48.0,40.0,30.11,North,0,0.0,0.0,74,0.00,,,0.00,,2013-05-13 02:52:00,
2013-05-12 22:01:00,47.0,39.0,30.12,North,0,0.0,0.0,74,0.00,,,0.00,,2013-05-13 03:01:00,
2013-05-12 22:11:00,47.0,39.0,30.12,North,0,0.0,0.0,74,0.00,,,0.00,,2013-05-13 03:11:00,
2013-05-12 22:21:00,47.0,40.0,30.12,North,0,0.0,0.0,76,0.00,,,0.00,,2013-05-13 03:21:00,
2013-05-12 22:32:00,46.0,40.0,30.12,North,0,0.0,0.0,80,0.00,,,0.00,,2013-05-13 03:32:00,
2013-05-12 22:42:00,46.0,40.0,30.12,North,0,0.0,0.0,80,0.00,,,0.00,,2013-05-13 03:42:00,
2013-05-12 22:52:00,46.0,40.0,30.12,North,0,0.0,0.0,80,0.00,,,0.00,,2013-05-13 03:52:00,
2013-05-12 23:02:00,45.0,40.0,30.12,North,0,0.0,0.0,84,0.00,,,0.00,,2013-05-13 04:02:00,
2013-05-12 23:12:00,45.0,40.0,30.12,North,0,0.0,0.0,84,0.00,,,0.00,,2013-05-13 04:12:00,
2013-05-12 23:23:00,45.0,40.0,30.12,North,0,0.0,0.0,84,0.00,,,0.00,,2013-05-13 04:23:00,
2013-05-12 23:32:00,45.0,42.0,30.12,North,0,0.0,0.0,89,0.00,,,0.00,,2013-05-13 04:32:00,
2013-05-12 23:42:00,45.0,42.0,30.12,North,0,0.0,0.0,89,0.00,,,0.00,,2013-05-13 04:42:00,
2013-05-12 23:52:00,44.0,41.0,30.12,North,0,0.0,0.0,90,0.00,,,0.00,,2013-05-13 04:52:00,